MET5207 - Boston to Greenville - Spartanburg

Embraer ERJ-170LR
N924AG
2 hrs 00 mins
691 nm
Scheduled - Daily

Bid/PiRep Status

Bid was submitted on Dec 31 2016.

PiRep # 74548: Approved by Sean Doyle on January 1st, 2017 20:52 UTC

Departure

Departing from
Boston (BOS)
Departure gate
Scheduled Departure
GMT 1230
Local 0830
METAR KBOS 280154Z 36009KT 10SM BKN006 OVC013 04/03 A3004 RMK AO2 SLP172 T00390028 $
TAF KBOS 272333Z 2800/2906 34008KT P6SM BKN007 OVC012 FM280100 34006KT 5SM BR OVC007 FM280400 34006KT 2SM -DZ BR OVC003 FM280900 01004KT 2SM -DZ BR OVC003 FM281300 05005KT 2SM BR OVC003 FM281800 09004KT 3SM -SHRA BR BKN005 FM290300 03004KT 5SM -SHRA BR OVC008

Arrival

Arriving at
Greenville - Spartanburg (GSP)
Arrival gate
Unassigned
Scheduled Arrival
GMT 1430
Local 1030
METAR KGSP 280153Z 16005KT 10SM BKN095 BKN110 19/13 A2996 RMK AO2 SLP138 T01940128
TAF KGSP 272341Z 2800/2824 20006KT P6SM VCSH SCT060 BKN200 FM280300 19004KT P6SM VCTS BKN060CB TEMPO 2804/2807 6SM -TSRA BKN030CB OVC060 FM280800 21006KT P6SM BKN030 FM281600 24011KT P6SM SCT050 SCT250

Route Map

Planning Resources

HAFNR GVE LYH
TERPZ3 LDN GVE J75 GSO J14 SPA
TERPZ5 FLASK J48 SPA92 J53 SPA ICASY OXABY
PATSS SWALO J75 SBJ V419 BIGGY J75 GVE V476 LYH WHTTL
BOS PUT HFD RBV OOD OTT GVE LYH SPA KGSP
Route:
OFP Layout:
Units:
Detailed Navlog:
ETOPS Planning:
Plan Stepclimbs:
Runway Analysis:
Include NOTAMS:
FIR NOTAMS:
Flight Maps:

Return Flights

MET5208
Embraer ERJ-170LR
1500 GMT
MET5210
Embraer ERJ-170LR
0000 GMT

Popularity

Hub Current Bids PiReps this month Total PiReps
KMCI 0 0 2
KLAX 0 0 0
KBOS 0 0 3